Relevés horaires Beauvechain (Belgique)


Relevés horaires à Beauvechain - Mardi 10 Juill. 2018
Heure UTC1 Température [°C] Vent [km/h] Hum. [%] Pres.4 [hPa] Visi. [Km] Nébu. [octa] Préc.5 [mm] Cond.
2m. Res. Ros. Dir.2 Vit. Moy. Raf.3
23:00 14.1 14.1 13.2 NO 3.7 -- 9.3 94 1019.2(0.4/3h) 5 -- -- --
22:00 14.8 14.8 13.6 NO 5.6 -- 11.1 93 1019.1(0.4/3h) 7 -- -- --
21:00 15.0 15.0 13.8 ONO 5.6 -- 11.1 93 1019(0.2/3h) 7 -- -- NA
20:00 15.3 15.3 14.0 ONO 5.6 -- 11.1 92 1018.6(-0.2/3h) 9 -- -- --
19:00 15.0 15.0 14.0 ONO 5.6 -- 11.1 94 1018.6(-0.4/3h) 10 -- -- NA
18:00 14.8 14.8 13.9 O 5.6 -- 16.7 94 1018.7(-0.6/3h) 5 -- 0.3/12h
Il y a une bruine modérée et intermittente à la station au moment de l'observation
17:00 15.0 15 13.7 ONO 7.4 -- 16.7 92 1018.7(-1.0/3h) 8 -- -- NA
16:00 15.3 15.3 13.0 ONO 7.4 -- 14.8 86 1019(-1.2/3h) 13 -- -- --
15:00 15.3 15.1 12.6 ONO 9.3 -- 16.7 84 1019.3(-0.9/3h) 9 7/8 -- --
14:00 15.7 15.5 12.1 NO 9.3 -- 14.8 79 1019.8(-0.3/3h) 15 7/8 -- --
13:00 15.8 15.6 10.4 NO 9.3 -- 14.8 70 1020.2(0.0/3h) 25 7/8 -- --
12:00 15.9 15.8 8.9 NO 9.3 -- 16.7 63 1020.3(-0.3/3h) 25 7/8 -- --
11:00 16.2 16.1 8.6 NO 9.3 -- 16.7 61 1020.2(-0.6/3h) 25 7/8 -- --
10:00 16.1 16.1 8.3 ONO 7.4 -- 13.0 60 1020.2(-0.6/3h) 25 7/8 -- --
09:00 14.9 14.9 9.0 ONO 5.6 -- 11.1 68 1020.7(-0.5/3h) 25 7/8 -- --
08:00 15.1 15.1 9.0 NO 5.6 -- 11.1 67 1021(-0.2/3h) 25 7/8 -- --
07:00 14.1 14.1 9.1 NNO 5.6 -- 11.1 72 1021.1(-0.3/3h) 20 7/8 -- --
06:00 13.8 13.8 8.9 N 5.6 -- 14.8 72 1021.2(0.1/3h) 20 7/8 -- --
05:00 14.1 14.1 9.0 NNO 5.6 -- 9.3 71 1021.2(-0.4/3h) 20 7/8 -- --
04:00 13.8 13.8 9.8 NO 3.7 -- 9.3 77 1021.5(-0.6/3h) 20 7/8 -- --
03:00 14.3 14.3 9.2 NO 5.6 -- 14.8 71 1021.3(-1.0/3h) 20 -- -- --
02:00 14.8 14.8 9.0 NNO 5.6 -- 13.0 68 1021.7(-0.6/3h) 20 -- -- --
01:00 15.1 15.1 9.1 NNO 7.4 -- 14.8 67 1022.1(-0.1/3h) 20 -- -- --
00:00 15.6 15.4 11.2 N 9.3 -- 16.7 75 1022.2(-0.1/3h) 17 -- -- --

1 Coordinated Universal Time. Actuellement il est 23:00 locale et 22:00 UTC.

2 Le vent souffle depuis la direction indiquée vers la direction oposée.

3 Les rafales max. sont disponible 40 min après l'heure du relevé.

4 Pour les stations d'altitude (plus de 600m) le géopotentiel du niveau le plus proche de la pression obligatoire est indiqué.

5 Les stations disposant d'un diffuseur peuvent indiquer "trace". Cela signifie que des précipitations ont touchés le sol mais que la quantité est inférieure à 0.1 mm.

Récapitulatif de la journée
Température [°C] Vent [km/h] Ensoleillement4 [h] Precipitations totale5 [mm] Pression [Hpa]
Min1 Max.2 Moy.3 Max. Min Max.
13.8 16.8 0 16.7 0 h 0 min 0 1018.6 1022.2

1 Température minimale relevée entre 18:00 UTC la veille et 18:00 UTC le jour donné.

2 Température maximale relevée entre 06:00 UTC le jour donné et 06:00 UTC le lendemain.

3 Vent moyen de la journée basé sur les relevés horaires.

4 Ensoleillement en heures relevé entre 06:00 UTC la veille et 06:00 UTC le jour donné.

5 Précipitations totales tombées entre 06:00 UTC la jour donné et 06:00 UTC le lendemain.

Graphiques horaires